Falls International Airport
KINL : now visible

Airfield :











YOU CAN JOIN US ON...

 
LOGIN :

Register | Disclaimer

   EN    FR    IT 

 









Legend :    VFR   Marginal VFR   IFR   Intensive IFR   Very Intensive IFR
Visi :
Ceiling :
>= 8 km
>= 3000ft
5 to 8 km
1000 to 3000 ft
1500m to 5 km
500 to 1000 ft
800 to 1500m
200 to 500 ft
< 800m
< 200 ft
Symbols :   Thunderstorms  Fog  Heavy snow  Heavy precipitations  Wind > 20 kt






- Airport Elevation : 1185 ft
- IATA code : INL


KINL - Falls International

CURRENT METAR :
  • 172054Z AUTO 02005KT 10SM BKN016 OVC021 M06/M10 A2978 RMK AO2 SLP110 T10611100 53007

EXPIRED METARs :
  • 171954Z AUTO 01006KT 10SM BKN012 OVC020 M06/M09 A2977 RMK AO2 SLP103 T10611094
  • 171947Z AUTO 36005KT 10SM BKN012 OVC020 M06/M09 A2976 RMK AO2 T10611094
  • 171910Z AUTO 35004KT 10SM BKN010 OVC018 M07/M09 A2978 RMK AO2 T10671089
  • 171854Z AUTO 00000KT 10SM SCT009 OVC017 M07/M09 A2976 RMK AO2 SLP101 T10671089

TAF KINL
Valid from the 17 at 18:00 until the 18 at 18:00 UTC


171726Z 1718/1818 36005KT P6SM BKN006
FM172000 36005KT P6SM BKN013
FM172300 02004KT P6SM BKN025
FM181100 12006KT 4SM -SN BKN012
FM181500 13008G16KT 1 1/2SM -SN BKN006
KZMP FIR / North America



MET'MAP, your aeronautical weather chart ! - Copyright ORBIFLY December 2007 - Disclaimer

ORBIFLY MET'MAP TEAM :

Programming & Development : Alexandra Zaïnal
Concept & original design : Baudouin d'Aumeries
Assistance for programming : Marc-Olivier Méhu
Technical & hardware support : Manuel Goepfert

Contact : metmap@orbifly.com




SOURCES & CREDITS :

   NOAA       Earth
Advisory